createdAt,value
2023-02-15T00:02:03.120Z,101311.69
2023-02-15T00:04:47.068Z,101297.59
2023-02-15T00:07:16.326Z,101291.69
2023-02-15T00:09:43.537Z,101300.31
2023-02-15T00:12:10.844Z,101308.31
2023-02-15T00:14:38.082Z,101297.87
2023-02-15T00:17:05.455Z,101301.37
2023-02-15T00:19:32.665Z,101299.78
2023-02-15T00:21:59.456Z,101276.66
2023-02-15T00:24:26.668Z,101290.00
2023-02-15T00:26:53.456Z,101297.06
2023-02-15T00:29:20.887Z,101297.16
2023-02-15T00:31:49.460Z,101292.84
2023-02-15T00:34:19.295Z,101282.94
2023-02-15T00:36:46.906Z,101305.03
2023-02-15T00:39:15.915Z,101300.72
2023-02-15T00:41:44.609Z,101307.69
2023-02-15T00:44:12.101Z,101301.87
2023-02-15T00:46:39.137Z,101327.00
2023-02-15T00:49:09.956Z,101308.72
2023-02-15T00:51:38.063Z,101306.09
2023-02-15T00:54:05.423Z,101310.59
2023-02-15T00:56:32.156Z,101308.28
2023-02-15T00:58:58.812Z,101317.94
2023-02-15T01:01:26.825Z,101313.34
2023-02-15T01:03:54.034Z,101308.78
2023-02-15T01:06:20.969Z,101319.62
2023-02-15T01:08:48.604Z,101303.53
2023-02-15T01:11:24.725Z,101317.94
2023-02-15T01:13:53.682Z,101319.81
2023-02-15T01:16:21.731Z,101318.03
2023-02-15T01:18:48.930Z,101303.84
2023-02-15T01:21:20.381Z,101314.56
2023-02-15T01:23:47.269Z,101315.50
2023-02-15T01:26:15.111Z,101319.94
2023-02-15T01:28:43.696Z,101317.31
2023-02-15T01:31:13.413Z,101296.88
2023-02-15T01:33:40.731Z,101309.62
2023-02-15T01:36:10.203Z,101310.34
2023-02-15T01:38:37.024Z,101314.78
2023-02-15T01:41:20.983Z,101294.34
2023-02-15T01:44:00.075Z,101314.78
2023-02-15T01:46:36.258Z,101314.78
2023-02-15T01:49:11.468Z,101305.69
2023-02-15T01:51:41.435Z,101313.69
2023-02-15T01:54:29.844Z,101328.09
2023-02-15T01:57:01.569Z,101323.78
2023-02-15T01:59:32.797Z,101323.06
2023-02-15T02:02:00.849Z,101329.16
2023-02-15T02:04:32.698Z,101326.72
2023-02-15T02:07:00.596Z,101323.16
2023-02-15T02:09:28.022Z,101324.94
2023-02-15T02:11:55.431Z,101338.09
2023-02-15T02:14:23.795Z,101312.00
2023-02-15T02:17:29.480Z,101337.31
2023-02-15T02:20:36.843Z,101338.28
2023-02-15T02:23:25.167Z,101337.31
2023-02-15T02:26:06.381Z,101349.72
2023-02-15T02:29:00.908Z,101336.59
2023-02-15T02:31:49.682Z,101344.56
2023-02-15T02:34:55.032Z,101335.00
2023-02-15T02:37:31.887Z,101325.19
2023-02-15T02:40:09.132Z,101344.78
2023-02-15T02:42:46.871Z,101335.69
2023-02-15T02:45:25.349Z,101329.31
2023-02-15T02:48:00.378Z,101332.13
2023-02-15T02:50:30.131Z,101320.50
2023-02-15T02:52:59.426Z,101330.62
2023-02-15T02:55:38.626Z,101344.69
2023-02-15T02:58:10.420Z,101348.91
2023-02-15T03:00:48.487Z,101347.22
2023-02-15T03:03:28.933Z,101349.75
2023-02-15T03:06:02.332Z,101350.81
2023-02-15T03:08:46.303Z,101352.56
2023-02-15T03:11:13.244Z,101335.59
2023-02-15T03:13:41.855Z,101349.09
2023-02-15T03:16:28.852Z,101352.56
2023-02-15T03:19:00.597Z,101347.06
2023-02-15T03:21:50.268Z,101363.28
2023-02-15T03:24:23.074Z,101358.00
2023-02-15T03:26:55.345Z,101351.16
2023-02-15T03:29:26.892Z,101356.25
2023-02-15T03:32:02.766Z,101357.09
2023-02-15T03:34:30.361Z,101346.19
2023-02-15T03:37:05.558Z,101364.97
2023-02-15T03:39:56.168Z,101355.37
2023-02-15T03:42:38.322Z,101364.03
2023-02-15T03:45:09.049Z,101373.56
2023-02-15T03:47:40.540Z,101363.06
2023-02-15T03:50:35.500Z,101367.50
2023-02-15T03:53:06.060Z,101370.13
2023-02-15T03:55:35.457Z,101371.91
2023-02-15T03:58:20.897Z,101362.34
2023-02-15T04:01:17.583Z,101376.50
2023-02-15T04:03:52.888Z,101360.75
2023-02-15T04:06:19.772Z,101372.00
2023-02-15T04:09:07.063Z,101366.84
2023-02-15T04:11:33.868Z,101379.03
2023-02-15T04:14:20.710Z,101386.91
2023-02-15T04:16:47.542Z,101359.72
2023-02-15T04:19:33.527Z,101370.41
2023-02-15T04:22:18.916Z,101384.28
2023-02-15T04:25:04.838Z,101386.91
2023-02-15T04:27:31.615Z,101389.63
2023-02-15T04:29:58.827Z,101384.56
2023-02-15T04:32:25.512Z,101385.41
2023-02-15T04:34:52.182Z,101380.16
2023-02-15T04:37:19.145Z,101371.81
2023-02-15T04:39:45.931Z,101383.72
2023-02-15T04:42:12.695Z,101386.37
2023-02-15T04:44:39.790Z,101372.09
2023-02-15T04:47:06.461Z,101389.00
2023-02-15T04:49:33.098Z,101377.38
2023-02-15T04:52:00.145Z,101383.06
2023-02-15T04:54:26.765Z,101395.34
2023-02-15T04:56:53.548Z,101374.94
2023-02-15T04:59:20.478Z,101380.28
2023-02-15T05:01:47.139Z,101392.09
2023-02-15T05:04:13.888Z,101399.09
2023-02-15T05:06:41.011Z,101406.25
2023-02-15T05:09:07.915Z,101415.06
2023-02-15T05:11:34.813Z,101414.31
2023-02-15T05:14:01.816Z,101418.72
2023-02-15T05:16:29.024Z,101427.63
2023-02-15T05:18:55.894Z,101440.75
2023-02-15T05:21:22.930Z,101426.13
2023-02-15T05:23:49.747Z,101443.47
2023-02-15T05:26:41.446Z,101435.59
2023-02-15T05:29:09.370Z,101438.31
2023-02-15T05:31:36.881Z,101442.78
2023-02-15T05:34:04.846Z,101433.72
2023-02-15T05:36:31.971Z,101449.94
2023-02-15T05:38:58.687Z,101442.16
2023-02-15T05:41:26.550Z,101437.81
2023-02-15T05:43:56.822Z,101455.38
2023-02-15T05:46:23.627Z,101459.78
2023-02-15T05:48:50.488Z,101445.06
2023-02-15T05:51:17.978Z,101454.03
2023-02-15T05:53:45.026Z,101447.50
2023-02-15T05:56:12.258Z,101449.16
2023-02-15T05:58:41.464Z,101470.34
2023-02-15T06:01:16.726Z,101466.97
2023-02-15T06:03:45.107Z,101447.34
2023-02-15T06:06:12.266Z,101472.03
2023-02-15T06:08:39.134Z,101474.56
2023-02-15T06:11:06.460Z,101460.94
2023-02-15T06:13:37.250Z,101468.31
2023-02-15T06:16:06.119Z,101466.97
2023-02-15T06:18:33.536Z,101484.13
2023-02-15T06:21:00.307Z,101477.28
2023-02-15T06:23:27.029Z,101489.62
2023-02-15T06:25:54.123Z,101466.38
2023-02-15T06:28:20.975Z,101469.41
2023-02-15T06:30:47.811Z,101473.56
2023-02-15T06:33:14.989Z,101468.81
2023-02-15T06:35:42.124Z,101483.28
2023-02-15T06:38:08.917Z,101466.09
2023-02-15T06:40:36.185Z,101479.12
2023-02-15T06:43:03.023Z,101473.06
2023-02-15T06:45:29.699Z,101444.81
2023-02-15T06:47:56.698Z,101458.31
2023-02-15T06:50:23.600Z,101473.13
2023-02-15T06:52:50.315Z,101475.69
2023-02-15T06:55:17.249Z,101462.81
2023-02-15T06:57:43.916Z,101468.81
2023-02-15T07:00:11.269Z,101469.88
2023-02-15T07:02:38.201Z,101452.12
2023-02-15T07:05:06.191Z,101467.34
2023-02-15T07:07:33.275Z,101467.34
2023-02-15T07:10:00.234Z,101452.88
2023-02-15T07:12:45.508Z,101466.56
2023-02-15T07:15:15.759Z,101464.88
2023-02-15T07:17:43.180Z,101470.13
2023-02-15T07:20:15.068Z,101462.53
2023-02-15T07:22:42.182Z,101468.72
2023-02-15T07:25:10.764Z,101462.81
2023-02-15T07:27:37.924Z,101454.84
2023-02-15T07:30:08.132Z,101461.78
2023-02-15T07:32:34.932Z,101458.31
2023-02-15T07:35:01.839Z,101457.37
2023-02-15T07:37:29.378Z,101444.19
2023-02-15T07:39:55.996Z,101464.31
2023-02-15T07:42:23.075Z,101470.41
2023-02-15T07:44:51.414Z,101489.88
2023-02-15T07:47:18.118Z,101460.19
2023-02-15T07:49:45.594Z,101460.34
2023-02-15T07:52:12.601Z,101476.06
2023-02-15T07:54:39.262Z,101476.06
2023-02-15T07:57:05.928Z,101463.13
2023-02-15T07:59:32.790Z,101485.66
2023-02-15T08:01:59.657Z,101483.81
2023-02-15T08:04:26.622Z,101485.28
2023-02-15T08:06:55.304Z,101477.78
2023-02-15T08:09:22.506Z,101491.31
2023-02-15T08:11:50.362Z,101479.56
2023-02-15T08:14:19.664Z,101495.50
2023-02-15T08:16:47.897Z,101497.31
2023-02-15T08:19:20.685Z,101494.69
2023-02-15T08:21:50.415Z,101509.41
2023-02-15T08:24:21.646Z,101493.56
2023-02-15T08:26:49.491Z,101499.66
2023-02-15T08:29:18.757Z,101490.75
2023-02-15T08:31:48.312Z,101503.78
2023-02-15T08:34:17.963Z,101493.31
2023-02-15T08:36:46.158Z,101494.87
2023-02-15T08:39:14.984Z,101483.53
2023-02-15T08:41:44.470Z,101496.41
2023-02-15T08:44:11.849Z,101489.28
2023-02-15T08:46:41.284Z,101499.53
2023-02-15T08:49:08.406Z,101508.03
2023-02-15T08:51:37.743Z,101508.03
2023-02-15T08:54:06.963Z,101487.50
2023-02-15T08:56:38.941Z,101503.53
2023-02-15T08:59:07.781Z,101497.91
2023-02-15T09:01:35.963Z,101505.34
2023-02-15T09:04:10.814Z,101502.78
2023-02-15T09:06:39.576Z,101507.22
2023-02-15T09:09:08.866Z,101493.69
2023-02-15T09:11:41.958Z,101501.97
2023-02-15T09:14:16.214Z,101506.16
2023-02-15T09:16:50.329Z,101505.97
2023-02-15T09:19:19.428Z,101498.47
2023-02-15T09:21:46.734Z,101505.78
2023-02-15T09:24:16.061Z,101492.13
2023-02-15T09:26:47.690Z,101505.25
2023-02-15T09:29:16.836Z,101517.44
2023-02-15T09:31:47.187Z,101505.25
2023-02-15T09:34:17.733Z,101500.06
2023-02-15T09:36:45.938Z,101503.44
2023-02-15T09:39:24.834Z,101497.19
2023-02-15T09:42:34.274Z,101500.63
2023-02-15T09:45:27.854Z,101501.50
2023-02-15T09:48:15.669Z,101499.62
2023-02-15T09:51:04.639Z,101499.62
2023-02-15T09:53:35.607Z,101506.56
2023-02-15T09:56:21.270Z,101507.69
2023-02-15T09:59:12.746Z,101503.03
2023-02-15T10:02:00.981Z,101504.69
2023-02-15T10:04:47.038Z,101487.69
2023-02-15T10:07:38.618Z,101498.41
2023-02-15T10:10:14.664Z,101494.59
2023-02-15T10:13:06.225Z,101475.53
2023-02-15T10:15:59.060Z,101480.22
2023-02-15T10:18:45.944Z,101472.25
2023-02-15T10:21:58.315Z,101485.78
2023-02-15T10:24:30.955Z,101480.53
2023-02-15T10:27:11.126Z,101473.19
2023-02-15T10:29:39.884Z,101476.22
2023-02-15T10:32:16.005Z,101474.13
2023-02-15T10:34:58.850Z,101473.84
2023-02-15T10:37:54.654Z,101463.81
2023-02-15T10:40:52.359Z,101471.09
2023-02-15T10:43:53.559Z,101456.47
2023-02-15T10:46:33.792Z,101470.91
2023-02-15T10:49:25.465Z,101481.97
2023-02-15T10:52:34.384Z,101479.34
2023-02-15T10:55:25.757Z,101468.09
2023-02-15T10:58:12.897Z,101471.16
2023-02-15T11:00:49.380Z,101470.87
2023-02-15T11:03:35.685Z,101455.28
2023-02-15T11:06:02.714Z,101465.88
2023-02-15T11:08:35.569Z,101456.78
2023-02-15T11:11:08.223Z,101459.19
2023-02-15T11:13:41.160Z,101462.34
2023-02-15T11:16:19.034Z,101445.28
2023-02-15T11:19:01.064Z,101457.72
2023-02-15T11:21:39.952Z,101444.25
2023-02-15T11:24:28.761Z,101454.84
2023-02-15T11:27:17.434Z,101454.63
2023-02-15T11:30:05.552Z,101459.78
2023-02-15T11:32:39.965Z,101456.75
2023-02-15T11:35:12.911Z,101452.03
2023-02-15T11:37:51.318Z,101443.50
2023-02-15T11:40:48.847Z,101453.94
2023-02-15T11:43:24.833Z,101436.66
2023-02-15T11:45:52.061Z,101439.44
2023-02-15T11:48:19.075Z,101457.84
2023-02-15T11:50:46.821Z,101447.53
2023-02-15T11:53:16.843Z,101438.50
2023-02-15T11:55:48.617Z,101447.97
2023-02-15T11:58:38.439Z,101451.25
2023-02-15T12:01:11.123Z,101449.12
2023-02-15T12:03:47.731Z,101440.19
2023-02-15T12:06:20.896Z,101437.47
2023-02-15T12:08:55.357Z,101439.16
2023-02-15T12:11:30.369Z,101435.56
2023-02-15T12:14:08.049Z,101430.19
2023-02-15T12:16:56.640Z,101431.16
2023-02-15T12:19:35.607Z,101437.03
2023-02-15T12:22:04.896Z,101427.25
2023-02-15T12:24:35.756Z,101423.56
2023-02-15T12:27:06.527Z,101423.25
2023-02-15T12:29:56.118Z,101429.25
2023-02-15T12:32:57.691Z,101425.47
2023-02-15T12:35:31.456Z,101429.56
2023-02-15T12:38:04.730Z,101430.31
2023-02-15T12:40:34.278Z,101426.94
2023-02-15T12:43:01.809Z,101413.37
2023-02-15T12:45:33.818Z,101431.16
2023-02-15T12:48:10.649Z,101423.87
2023-02-15T12:50:37.608Z,101422.63
2023-02-15T12:53:34.082Z,101408.81
2023-02-15T12:56:07.018Z,101421.38
2023-02-15T12:58:36.087Z,101435.22
2023-02-15T13:01:17.395Z,101430.59
2023-02-15T13:04:07.445Z,101427.75
2023-02-15T13:06:36.860Z,101429.94
2023-02-15T13:09:20.783Z,101434.28
2023-02-15T13:11:48.305Z,101413.63
2023-02-15T13:14:20.726Z,101434.06
2023-02-15T13:16:51.900Z,101431.31
2023-02-15T13:19:43.138Z,101430.25
2023-02-15T13:22:16.154Z,101425.41
2023-02-15T13:24:57.170Z,101438.91
2023-02-15T13:27:34.211Z,101436.16
2023-02-15T13:30:05.056Z,101448.25
2023-02-15T13:32:39.188Z,101435.94
2023-02-15T13:35:09.592Z,101441.19
2023-02-15T13:38:03.662Z,101436.16
2023-02-15T13:40:37.789Z,101444.97
2023-02-15T13:43:27.686Z,101442.84
2023-02-15T13:46:33.452Z,101445.16
2023-02-15T13:49:08.689Z,101451.16
2023-02-15T13:51:57.064Z,101441.34
2023-02-15T13:54:36.383Z,101428.84
2023-02-15T13:57:21.181Z,101440.50
2023-02-15T14:00:05.142Z,101445.75
2023-02-15T14:02:58.681Z,101447.56
2023-02-15T14:06:03.525Z,101444.72
2023-02-15T14:09:09.258Z,101449.88
2023-02-15T14:12:03.858Z,101435.75
2023-02-15T14:14:41.056Z,101442.72
2023-02-15T14:17:32.801Z,101445.25
2023-02-15T14:20:16.265Z,101437.31
2023-02-15T14:23:08.724Z,101444.03
2023-02-15T14:25:50.925Z,101449.44
2023-02-15T14:28:22.898Z,101453.97
2023-02-15T14:30:51.621Z,101451.56
2023-02-15T14:33:39.376Z,101451.78
2023-02-15T14:36:08.761Z,101446.75
2023-02-15T14:38:52.814Z,101447.78
2023-02-15T14:41:24.155Z,101427.38
2023-02-15T14:43:56.813Z,101437.47
2023-02-15T14:46:51.887Z,101456.75
2023-02-15T14:49:33.053Z,101445.47
2023-02-15T14:52:19.945Z,101442.84
2023-02-15T14:54:49.609Z,101453.50
2023-02-15T14:57:16.307Z,101445.59
2023-02-15T15:00:00.262Z,101452.66
2023-02-15T15:02:29.264Z,101450.87
2023-02-15T15:05:07.282Z,101466.78
2023-02-15T15:07:44.583Z,101481.66
2023-02-15T15:10:17.795Z,101465.97
2023-02-15T15:12:48.721Z,101466.91
2023-02-15T15:15:27.596Z,101466.06
2023-02-15T15:18:03.610Z,101464.37
2023-02-15T15:20:52.135Z,101470.69
2023-02-15T15:23:19.125Z,101478.59
2023-02-15T15:25:53.158Z,101464.72
2023-02-15T15:28:39.625Z,101478.81
2023-02-15T15:31:37.782Z,101477.25
2023-02-15T15:34:40.581Z,101481.78
2023-02-15T15:37:18.628Z,101478.44
2023-02-15T15:40:10.592Z,101470.75
2023-02-15T15:43:28.966Z,101479.59
2023-02-15T15:46:11.755Z,101461.06
2023-02-15T15:48:41.261Z,101477.91
2023-02-15T15:51:17.323Z,101483.28
2023-02-15T15:53:49.909Z,101478.09
2023-02-15T15:56:22.391Z,101482.53
2023-02-15T15:58:56.940Z,101481.72
2023-02-15T16:01:29.697Z,101485.28
2023-02-15T16:03:59.436Z,101481.06
2023-02-15T16:06:37.919Z,101480.22
2023-02-15T16:09:22.706Z,101488.88
2023-02-15T16:11:56.175Z,101488.56
2023-02-15T16:14:29.963Z,101487.19
2023-02-15T16:17:00.598Z,101500.38
2023-02-15T16:19:31.442Z,101501.22
2023-02-15T16:22:00.193Z,101503.00
2023-02-15T16:24:54.708Z,101492.25
2023-02-15T16:27:31.485Z,101506.59
2023-02-15T16:29:58.536Z,101506.59
2023-02-15T16:32:27.406Z,101503.22
2023-02-15T16:34:56.882Z,101503.94
2023-02-15T16:37:28.223Z,101498.25
2023-02-15T16:39:56.387Z,101506.81
2023-02-15T16:42:23.802Z,101491.63
2023-02-15T16:45:17.618Z,101507.00
2023-02-15T16:47:48.760Z,101507.00
2023-02-15T16:50:23.720Z,101497.94
2023-02-15T16:52:52.507Z,101489.22
2023-02-15T16:55:39.403Z,101506.25
2023-02-15T16:58:08.592Z,101508.06
2023-02-15T17:00:40.401Z,101506.56
2023-02-15T17:03:21.777Z,101515.34
2023-02-15T17:05:52.363Z,101512.72
2023-02-15T17:08:25.237Z,101507.66
2023-02-15T17:11:10.816Z,101513.75
2023-02-15T17:13:38.506Z,101521.75
2023-02-15T17:16:06.641Z,101514.69
2023-02-15T17:18:40.568Z,101518.41
2023-02-15T17:21:24.695Z,101512.38
2023-02-15T17:23:57.716Z,101520.16
2023-02-15T17:26:29.970Z,101523.66
2023-02-15T17:29:03.008Z,101515.00
2023-02-15T17:31:34.206Z,101511.66
2023-02-15T17:34:03.722Z,101512.47
2023-02-15T17:36:32.634Z,101497.31
2023-02-15T17:38:59.339Z,101515.22
2023-02-15T17:41:26.632Z,101508.28
2023-02-15T17:43:53.800Z,101502.25
2023-02-15T17:46:23.618Z,101503.19
2023-02-15T17:48:56.053Z,101505.94
2023-02-15T17:51:23.726Z,101512.28
2023-02-15T17:54:09.012Z,101500.97
2023-02-15T17:56:38.542Z,101505.41
2023-02-15T17:59:07.654Z,101503.00
2023-02-15T18:01:54.672Z,101501.28
2023-02-15T18:04:41.852Z,101495.81
2023-02-15T18:07:32.236Z,101508.56
2023-02-15T18:10:17.756Z,101506.03
2023-02-15T18:12:45.244Z,101510.38
2023-02-15T18:15:13.129Z,101504.25
2023-02-15T18:17:46.479Z,101519.31
2023-02-15T18:20:24.852Z,101513.94
2023-02-15T18:22:55.112Z,101516.47
2023-02-15T18:25:25.578Z,101526.19
2023-02-15T18:27:55.107Z,101506.56
2023-02-15T18:30:26.892Z,101509.50
2023-02-15T18:32:57.115Z,101514.78
2023-02-15T18:35:28.604Z,101513.94
2023-02-15T18:37:56.279Z,101520.03
2023-02-15T18:40:27.486Z,101518.37
2023-02-15T18:42:56.952Z,101521.00
2023-02-15T18:45:28.548Z,101522.88
2023-02-15T18:47:55.613Z,101512.34
2023-02-15T18:50:24.489Z,101521.22
2023-02-15T18:52:51.715Z,101501.72
2023-02-15T18:55:25.039Z,101512.56
2023-02-15T18:57:54.213Z,101517.00
2023-02-15T19:00:30.199Z,101522.34
2023-02-15T19:02:57.156Z,101518.97
2023-02-15T19:05:27.528Z,101518.97
2023-02-15T19:07:55.127Z,101509.91
2023-02-15T19:10:25.735Z,101524.22
2023-02-15T19:12:53.976Z,101518.25
2023-02-15T19:15:30.488Z,101519.16
2023-02-15T19:17:58.378Z,101509.72
2023-02-15T19:20:29.856Z,101509.72
2023-02-15T19:22:58.354Z,101509.06
2023-02-15T19:25:28.088Z,101500.44
2023-02-15T19:27:56.151Z,101507.38
2023-02-15T19:30:30.082Z,101504.84
2023-02-15T19:32:59.256Z,101509.38
2023-02-15T19:35:29.784Z,101514.72
2023-02-15T19:38:02.480Z,101511.37
2023-02-15T19:40:32.952Z,101509.66
2023-02-15T19:43:00.002Z,101507.13
2023-02-15T19:45:29.054Z,101501.87
2023-02-15T19:47:57.106Z,101505.44
2023-02-15T19:50:31.177Z,101510.91
2023-02-15T19:52:58.495Z,101502.19
2023-02-15T19:55:30.740Z,101500.69
2023-02-15T19:57:59.494Z,101503.31
2023-02-15T20:00:34.248Z,101506.16
2023-02-15T20:03:01.790Z,101510.47
2023-02-15T20:05:30.945Z,101503.53
2023-02-15T20:07:58.358Z,101491.84
2023-02-15T20:10:29.397Z,101503.53
2023-02-15T20:12:56.755Z,101512.38
2023-02-15T20:15:31.046Z,101500.25
2023-02-15T20:17:59.961Z,101512.59
2023-02-15T20:20:38.706Z,101515.31
2023-02-15T20:23:07.057Z,101511.94
2023-02-15T20:25:34.174Z,101507.69
2023-02-15T20:28:01.606Z,101504.03
2023-02-15T20:30:32.038Z,101498.97
2023-02-15T20:32:59.008Z,101508.66
2023-02-15T20:35:28.787Z,101507.81
2023-02-15T20:38:00.331Z,101509.69
2023-02-15T20:40:32.446Z,101505.38
2023-02-15T20:43:00.942Z,101513.38
2023-02-15T20:45:32.996Z,101501.06
2023-02-15T20:48:01.837Z,101501.16
2023-02-15T20:50:31.150Z,101479.03
2023-02-15T20:53:00.195Z,101504.84
2023-02-15T20:55:30.643Z,101503.25
2023-02-15T20:57:58.882Z,101497.97
2023-02-15T21:00:29.398Z,101489.34
2023-02-15T21:03:01.613Z,101497.25
2023-02-15T21:05:32.834Z,101493.88
2023-02-15T21:08:00.604Z,101500.06
2023-02-15T21:10:30.886Z,101494.81
2023-02-15T21:13:01.304Z,101499.34
2023-02-15T21:15:31.396Z,101490.69
2023-02-15T21:18:00.714Z,101502.91
2023-02-15T21:20:29.715Z,101496.91
2023-02-15T21:23:00.028Z,101502.16
2023-02-15T21:25:34.659Z,101495.94
2023-02-15T21:28:02.102Z,101490.44
2023-02-15T21:30:29.278Z,101497.84
2023-02-15T21:32:56.214Z,101508.37
2023-02-15T21:35:23.795Z,101502.25
2023-02-15T21:37:52.784Z,101505.72
2023-02-15T21:40:23.677Z,101494.13
2023-02-15T21:43:09.704Z,101493.38
2023-02-15T21:45:55.183Z,101506.12
2023-02-15T21:48:23.230Z,101496.94
2023-02-15T21:51:09.186Z,101513.06
2023-02-15T21:53:42.549Z,101518.41
2023-02-15T21:56:12.630Z,101515.78
2023-02-15T21:58:40.729Z,101506.34
2023-02-15T22:01:37.521Z,101512.53
2023-02-15T22:04:14.593Z,101512.63
2023-02-15T22:06:41.707Z,101504.81
2023-02-15T22:09:17.828Z,101509.25
2023-02-15T22:11:45.206Z,101508.50
2023-02-15T22:14:36.459Z,101486.25
2023-02-15T22:17:17.789Z,101504.19
2023-02-15T22:19:46.306Z,101483.09
2023-02-15T22:22:13.478Z,101507.00
2023-02-15T22:24:41.161Z,101497.44
2023-02-15T22:27:18.759Z,101504.50
2023-02-15T22:29:45.597Z,101506.34
2023-02-15T22:32:21.630Z,101502.97
2023-02-15T22:34:49.151Z,101502.97
2023-02-15T22:37:17.164Z,101502.13
2023-02-15T22:39:44.427Z,101483.38
2023-02-15T22:42:27.371Z,101507.47
2023-02-15T22:44:56.988Z,101507.47
2023-02-15T22:47:27.380Z,101498.03
2023-02-15T22:49:54.939Z,101511.06
2023-02-15T22:52:22.281Z,101502.41
2023-02-15T22:54:49.408Z,101485.47
2023-02-15T22:57:31.227Z,101500.75
2023-02-15T23:00:00.591Z,101498.22
2023-02-15T23:02:27.792Z,101494.91
2023-02-15T23:04:54.629Z,101501.87
2023-02-15T23:07:23.148Z,101491.47
2023-02-15T23:09:51.204Z,101481.34
2023-02-15T23:12:26.935Z,101494.00
2023-02-15T23:14:54.931Z,101484.97
2023-02-15T23:17:21.888Z,101496.72
2023-02-15T23:19:48.658Z,101502.81
2023-02-15T23:22:17.964Z,101494.91
2023-02-15T23:24:52.026Z,101501.87
2023-02-15T23:27:38.084Z,101500.94
2023-02-15T23:30:06.830Z,101500.06
2023-02-15T23:32:33.977Z,101499.25
2023-02-15T23:35:00.696Z,101500.94
2023-02-15T23:37:27.927Z,101501.03
2023-02-15T23:40:13.583Z,101509.13
2023-02-15T23:42:40.443Z,101502.91
2023-02-15T23:45:21.813Z,101501.31
2023-02-15T23:48:07.734Z,101513.50
2023-02-15T23:50:34.829Z,101504.87
2023-02-15T23:53:01.517Z,101493.91
2023-02-15T23:55:40.761Z,101508.44
2023-02-15T23:58:16.685Z,101512.03
